»·PEaware :: ASA452 KMFR-KPDX

ASA452 :: KMFR-KPDX

FLIGHT INFORMATION

Flight Status: Arrived
Operator:
Alaska Airlines
More flights by this operator :: More flights under this callsign
Pilot: Jesse M. (22378)
Aircraft: AIRBUS A320
(A320)
More flights by this aircraft type
Origin: KMFR Rogue Valley Intl-Medford
United States
Destination: KPDX Portland Intl
United States
More flights between these airports :: More routes between these airports
Route: JKSN1 OED MOXEE PORTL TMBRS2
File this flight plan on PilotEdge
Remarks: 104TH_KNIGHT / YOUTUBE
Altitude:
(Current/Filed)
28,000ft
Speed:
(Current/Filed)
450kts
Departed: 19-Dec-18 02:56 PM
Arrived: 19-Dec-18 03:35 PM
Distance/Time
Traveled:
193nm/0:39
Distance/Time
To Go:
Arrived

Flight Plot

Page will automatically refresh every two minutes.

Flight plan parsing failed; only flown route is shown


Map Options




Map Legend


Flown Route
Filed Route
Departure Airport
Arrival Airport
Navaid (VOR, NDB)
Fix

Horizontal Profiles

Position Reports

Time Latitude Longitude Heading Altitude Ground
Speed
19-Dec-18 14:27 42.369101 -122.873468 247 1324ft 0kts
19-Dec-18 14:28 42.369101 -122.873468 247 1324ft 0kts
19-Dec-18 14:29 42.369101 -122.873468 247 1324ft 0kts
19-Dec-18 14:30 42.369101 -122.873467 247 1324ft 0kts
19-Dec-18 14:31 42.369101 -122.873467 247 1324ft 0kts
19-Dec-18 14:32 42.369101 -122.873467 247 1324ft 0kts
19-Dec-18 14:33 42.369101 -122.873467 247 1324ft 0kts
19-Dec-18 14:34 42.369101 -122.873467 247 1324ft 0kts
19-Dec-18 14:35 42.369101 -122.873467 247 1324ft 0kts
19-Dec-18 14:36 42.369101 -122.873467 247 1324ft 0kts
19-Dec-18 14:37 42.369101 -122.873467 247 1324ft 0kts
19-Dec-18 14:38 42.369101 -122.873467 247 1324ft 0kts
19-Dec-18 14:39 42.369101 -122.873467 247 1324ft 0kts
19-Dec-18 14:40 42.369101 -122.873467 247 1324ft 0kts
19-Dec-18 14:41 42.369101 -122.873467 247 1324ft 0kts
19-Dec-18 14:42 42.369101 -122.873467 247 1324ft 0kts
19-Dec-18 14:43 42.369268 -122.873003 222 1324ft 2kts
19-Dec-18 14:44 42.369693 -122.872894 161 1324ft 0kts
19-Dec-18 14:45 42.369692 -122.872893 161 1324ft 0kts
19-Dec-18 14:46 42.369683 -122.872889 161 1324ft 0kts
19-Dec-18 14:47 42.368819 -122.872166 123 1324ft 9kts
19-Dec-18 14:48 42.366167 -122.870854 263 1324ft 9kts
19-Dec-18 14:49 42.368755 -122.871533 338 1324ft 15kts
19-Dec-18 14:50 42.371254 -122.872832 338 1324ft 0kts
19-Dec-18 14:51 42.372474 -122.873480 338 1324ft 14kts
19-Dec-18 14:52 42.377098 -122.875915 337 1324ft 19kts
19-Dec-18 14:53 42.382326 -122.878762 338 1324ft 20kts
19-Dec-18 14:55 42.385976 -122.879210 115 1324ft 9kts
19-Dec-18 14:56 42.359635 -122.865314 158 1777ft 192kts
19-Dec-18 14:57 42.327796 -122.901040 294 4561ft 208kts
19-Dec-18 14:58 42.387152 -122.936334 12 6728ft 265kts
19-Dec-18 14:59 42.461387 -122.916994 9 9667ft 282kts
19-Dec-18 15:00 42.538588 -122.907341 355 12281ft 302kts
19-Dec-18 15:01 42.632603 -122.898746 355 12999ft 374kts
19-Dec-18 15:02 42.738113 -122.888747 354 15088ft 385kts
19-Dec-18 15:03 42.845284 -122.878697 353 17054ft 393kts
19-Dec-18 15:04 42.953236 -122.868406 352 19594ft 377kts
19-Dec-18 15:05 43.060427 -122.858467 352 20659ft 406kts
19-Dec-18 15:06 43.174887 -122.847502 352 21670ft 425kts
19-Dec-18 15:07 43.293916 -122.836149 352 22872ft 436kts
19-Dec-18 15:08 43.415521 -122.824496 352 24026ft 444kts
19-Dec-18 15:09 43.483249 -122.817994 352 24632ft 448kts
19-Dec-18 15:10 43.607884 -122.805982 352 25706ft 455kts
19-Dec-18 15:11 43.734725 -122.793706 351 26682ft 461kts
19-Dec-18 15:12 43.862904 -122.781221 351 27755ft 462kts
19-Dec-18 15:12 43.968672 -122.770907 350 28218ft 458kts
19-Dec-18 15:14 44.108416 -122.757266 349 28215ft 434kts
19-Dec-18 15:14 44.210708 -122.746731 351 28233ft 457kts
19-Dec-18 15:16 44.357857 -122.732469 350 28272ft 458kts
19-Dec-18 15:16 44.458538 -122.722443 349 27639ft 414kts
19-Dec-18 15:17 44.574759 -122.711022 351 24926ft 404kts
19-Dec-18 15:18 44.680379 -122.700484 351 22283ft 369kts
19-Dec-18 15:19 44.779988 -122.690481 351 19848ft 351kts
19-Dec-18 15:20 44.874316 -122.680983 351 17356ft 335kts
19-Dec-18 15:21 44.964073 -122.671862 352 15082ft 307kts
19-Dec-18 15:22 45.047157 -122.663494 353 12718ft 290kts
19-Dec-18 15:23 45.123473 -122.655882 355 11382ft 289kts
19-Dec-18 15:24 45.208473 -122.653646 5 10065ft 331kts
19-Dec-18 15:25 45.276203 -122.576352 47 8692ft 298kts
19-Dec-18 15:26 45.331788 -122.495295 46 7399ft 269kts
19-Dec-18 15:27 45.382060 -122.425630 44 6098ft 245kts
19-Dec-18 15:28 45.444899 -122.396948 18 4646ft 230kts
19-Dec-18 15:29 45.505373 -122.382731 325 2769ft 232kts
19-Dec-18 15:30 45.530443 -122.456465 303 1868ft 174kts
19-Dec-18 15:31 45.552944 -122.512628 299 1246ft 152kts
19-Dec-18 15:32 45.573215 -122.565381 301 370ft 149kts
19-Dec-18 15:33 45.588608 -122.604667 299 38ft 41kts
19-Dec-18 15:34 45.593418 -122.612510 87 38ft 16kts
19-Dec-18 15:35 45.591228 -122.606533 120 38ft 14kts
19-Dec-18 15:36 45.589442 -122.601499 113 38ft 11kts
19-Dec-18 15:37 45.588394 -122.596969 7 38ft 7kts

Navigation Log

Ident Type
Flight plan parsing failed, navigation log unavailable